createdAt,value
2019-04-06T03:00:32.407Z,87.00
2019-04-06T03:03:00.763Z,87.30
2019-04-06T03:05:29.156Z,87.00
2019-04-06T03:07:57.518Z,87.30
2019-04-06T03:10:26.956Z,87.10
2019-04-06T03:12:55.330Z,87.10
2019-04-06T03:15:23.619Z,86.90
2019-04-06T03:17:52.010Z,87.00
2019-04-06T03:20:20.361Z,87.00
2019-04-06T03:22:48.736Z,87.00
2019-04-06T03:25:18.464Z,87.10
2019-04-06T03:27:48.531Z,87.10
2019-04-06T03:30:16.839Z,87.10
2019-04-06T03:32:45.593Z,86.80
2019-04-06T03:35:14.264Z,86.80
2019-04-06T03:37:42.915Z,87.20
2019-04-06T03:40:11.320Z,87.70
2019-04-06T03:42:39.663Z,87.30
2019-04-06T03:45:08.019Z,87.40
2019-04-06T03:47:36.408Z,87.20
2019-04-06T03:50:07.665Z,87.40
2019-04-06T03:52:36.048Z,87.30
2019-04-06T03:55:06.444Z,87.20
2019-04-06T03:57:34.823Z,87.30
2019-04-06T04:00:03.277Z,87.10
2019-04-06T04:02:31.649Z,87.10
2019-04-06T04:05:00.103Z,87.10
2019-04-06T04:07:28.893Z,87.40
2019-04-06T04:09:57.743Z,87.30
2019-04-06T04:12:26.125Z,87.60
2019-04-06T04:14:55.871Z,87.30
2019-04-06T04:17:24.258Z,87.40
2019-04-06T04:19:52.618Z,87.40
2019-04-06T04:22:21.000Z,87.30
2019-04-06T04:24:49.369Z,88.10
2019-04-06T04:27:28.258Z,87.30
2019-04-06T04:29:47.762Z,87.30
2019-04-06T04:32:16.112Z,88.10
2019-04-06T04:34:44.462Z,87.70
2019-04-06T04:37:14.554Z,87.50
2019-04-06T04:39:42.912Z,87.90
2019-04-06T04:42:11.304Z,87.60
2019-04-06T04:44:39.663Z,87.40
2019-04-06T04:47:08.114Z,87.60
2019-04-06T04:49:36.928Z,87.70
2019-04-06T04:52:05.459Z,87.80
2019-04-06T04:54:33.846Z,87.70
2019-04-06T04:57:02.208Z,87.80
2019-04-06T04:59:30.586Z,88.00
2019-04-06T05:01:58.952Z,88.10
2019-04-06T05:04:27.429Z,88.10
2019-04-06T05:06:55.778Z,88.60
2019-04-06T05:09:24.161Z,88.50
2019-04-06T05:11:52.641Z,88.10
2019-04-06T05:14:55.897Z,87.90
2019-04-06T05:17:24.248Z,87.90
2019-04-06T05:19:53.626Z,88.00
2019-04-06T05:22:21.915Z,88.00
2019-04-06T05:24:50.294Z,88.20
2019-04-06T05:27:18.654Z,88.20
2019-04-06T05:29:47.073Z,88.20
2019-04-06T05:32:15.431Z,88.70
2019-04-06T05:34:43.806Z,88.90
2019-04-06T05:37:12.168Z,88.60
2019-04-06T05:39:40.554Z,88.80
2019-04-06T05:42:08.940Z,88.60
2019-04-06T05:44:37.298Z,88.30
2019-04-06T05:47:05.650Z,88.20
2019-04-06T05:49:34.171Z,88.20
2019-04-06T05:52:02.488Z,88.20
2019-04-06T05:54:31.058Z,88.40
2019-04-06T05:56:59.415Z,88.30
2019-04-06T05:59:27.795Z,88.10
2019-04-06T06:01:56.304Z,87.90
2019-04-06T06:04:24.901Z,88.30
2019-04-06T06:06:53.261Z,88.10
2019-04-06T06:09:21.643Z,88.40
2019-04-06T06:11:50.086Z,88.10
2019-04-06T06:14:18.461Z,88.00
2019-04-06T06:16:46.818Z,87.80
2019-04-06T06:19:15.226Z,87.80
2019-04-06T06:21:43.600Z,87.70
2019-04-06T06:24:11.963Z,87.70
2019-04-06T06:26:41.387Z,87.40
2019-04-06T06:29:09.767Z,87.40
2019-04-06T06:31:38.180Z,87.30
2019-04-06T06:34:06.520Z,87.20
2019-04-06T06:36:34.885Z,87.10
2019-04-06T06:39:03.899Z,86.90
2019-04-06T06:41:32.227Z,87.00
2019-04-06T06:44:00.622Z,87.30
2019-04-06T06:46:29.031Z,86.00
2019-04-06T06:48:57.373Z,86.30
2019-04-06T06:51:25.918Z,86.10
2019-04-06T06:53:54.398Z,86.20
2019-04-06T06:56:22.746Z,86.20
2019-04-06T06:58:51.022Z,86.20
2019-04-06T07:01:19.330Z,85.20
2019-04-06T07:03:47.686Z,85.10
2019-04-06T07:06:16.069Z,84.30
2019-04-06T07:08:44.450Z,84.40
2019-04-06T07:11:12.820Z,84.60
2019-04-06T07:13:41.201Z,83.90
2019-04-06T07:16:10.091Z,84.50
2019-04-06T07:18:40.178Z,84.20
2019-04-06T07:21:08.583Z,83.60
2019-04-06T07:23:37.345Z,83.50
2019-04-06T07:26:05.759Z,82.70
2019-04-06T07:28:38.618Z,83.40
2019-04-06T07:31:04.163Z,80.30
2019-04-06T07:33:32.521Z,81.10
2019-04-06T07:36:00.823Z,81.40
2019-04-06T07:38:29.186Z,80.60
2019-04-06T07:40:58.146Z,79.50
2019-04-06T07:43:26.503Z,78.30
2019-04-06T07:45:55.081Z,80.00
2019-04-06T07:48:23.406Z,79.80
2019-04-06T07:50:53.940Z,78.40
2019-04-06T07:53:22.308Z,78.70
2019-04-06T07:55:50.834Z,78.10
2019-04-06T07:58:19.324Z,76.00
2019-04-06T08:00:47.683Z,76.70
2019-04-06T08:03:16.111Z,76.00
2019-04-06T08:05:44.539Z,74.00
2019-04-06T08:08:12.856Z,74.30
2019-04-06T08:10:41.263Z,74.30
2019-04-06T08:13:09.749Z,73.40
2019-04-06T08:15:38.101Z,73.30
2019-04-06T08:18:06.470Z,70.50
2019-04-06T08:20:34.758Z,73.60
2019-04-06T08:23:03.357Z,70.80
2019-04-06T08:25:31.690Z,73.10
2019-04-06T08:28:00.070Z,71.80
2019-04-06T08:30:28.759Z,74.70
2019-04-06T08:32:57.332Z,73.60
2019-04-06T08:35:26.585Z,72.60
2019-04-06T08:37:55.254Z,72.20
2019-04-06T08:40:23.678Z,70.00
2019-04-06T08:42:52.164Z,69.70
2019-04-06T08:45:20.495Z,70.10
2019-04-06T08:47:48.884Z,69.00
2019-04-06T08:50:17.301Z,65.90
2019-04-06T08:52:45.680Z,67.00
2019-04-06T08:55:14.038Z,68.10
2019-04-06T08:57:42.564Z,66.10
2019-04-06T09:00:11.355Z,66.40
2019-04-06T09:02:39.765Z,66.90
2019-04-06T09:05:08.110Z,64.60
2019-04-06T09:07:36.490Z,64.50
2019-04-06T09:10:06.395Z,65.00
2019-04-06T09:12:34.954Z,65.80
2019-04-06T09:15:04.589Z,64.00
2019-04-06T09:17:32.937Z,63.50
2019-04-06T09:20:01.532Z,63.30
2019-04-06T09:22:30.055Z,63.30
2019-04-06T09:24:58.421Z,63.90
2019-04-06T09:27:26.809Z,64.80
2019-04-06T09:29:55.267Z,64.30
2019-04-06T09:32:23.762Z,65.80
2019-04-06T09:34:52.124Z,64.50
2019-04-06T09:37:20.486Z,64.40
2019-04-06T09:39:48.875Z,62.40
2019-04-06T09:42:17.230Z,60.70
2019-04-06T09:45:02.074Z,62.30
2019-04-06T09:47:37.760Z,64.50
2019-04-06T09:50:23.477Z,63.80
2019-04-06T09:52:53.480Z,64.40
2019-04-06T09:55:23.478Z,63.60
2019-04-06T09:57:56.163Z,65.00
2019-04-06T10:00:32.078Z,65.40
2019-04-06T10:03:02.109Z,65.30
2019-04-06T10:05:32.112Z,64.70
2019-04-06T10:08:17.062Z,63.70
2019-04-06T10:11:01.853Z,65.00
2019-04-06T10:13:37.687Z,65.60
2019-04-06T10:16:23.651Z,65.00
2019-04-06T10:18:53.669Z,63.40
2019-04-06T10:21:23.674Z,64.90
2019-04-06T10:23:59.762Z,63.60
2019-04-06T10:26:29.893Z,64.20
2019-04-06T10:29:15.995Z,64.10
2019-04-06T10:31:48.752Z,61.70
2019-04-06T10:34:24.416Z,63.40
2019-04-06T10:37:10.451Z,63.80
2019-04-06T10:39:40.477Z,63.60
2019-04-06T10:42:16.298Z,62.40
2019-04-06T10:44:55.212Z,62.70
2019-04-06T10:47:28.011Z,62.70
2019-04-06T10:50:00.464Z,62.00
2019-04-06T10:52:36.371Z,62.70
2019-04-06T10:55:07.730Z,62.50
2019-04-06T10:57:54.129Z,59.90
2019-04-06T11:00:26.878Z,61.50
2019-04-06T11:03:05.692Z,63.40
2019-04-06T11:05:50.566Z,63.30
2019-04-06T11:08:23.550Z,62.20
2019-04-06T11:10:56.618Z,60.00
2019-04-06T11:13:41.761Z,60.70
2019-04-06T11:16:11.722Z,61.30
2019-04-06T11:18:50.808Z,61.10
2019-04-06T11:21:26.576Z,60.90
2019-04-06T11:23:59.342Z,62.30
2019-04-06T11:26:29.362Z,62.30
2019-04-06T11:29:08.617Z,63.20
2019-04-06T11:31:44.825Z,59.90
2019-04-06T11:34:26.927Z,60.90
2019-04-06T11:36:56.951Z,60.60
2019-04-06T11:39:42.947Z,62.20
2019-04-06T11:42:13.009Z,61.80
2019-04-06T11:44:49.191Z,60.90
2019-04-06T11:47:31.234Z,61.60
2019-04-06T11:50:16.262Z,61.20
2019-04-06T11:53:01.351Z,62.10
2019-04-06T11:55:31.374Z,60.60
2019-04-06T11:58:19.393Z,60.60
2019-04-06T12:01:01.574Z,58.70
2019-04-06T12:03:47.881Z,61.00
2019-04-06T12:06:20.930Z,60.40
2019-04-06T12:08:50.943Z,60.60
2019-04-06T12:11:26.674Z,60.50
2019-04-06T12:14:12.659Z,57.70
2019-04-06T12:16:51.458Z,60.40
2019-04-06T12:19:21.454Z,59.50
2019-04-06T12:21:51.477Z,59.80
2019-04-06T12:24:36.615Z,59.20
2019-04-06T12:27:06.602Z,60.70
2019-04-06T12:29:54.727Z,61.20
2019-04-06T12:32:30.750Z,59.80
2019-04-06T12:35:00.743Z,61.30
2019-04-06T12:37:36.582Z,58.50
2019-04-06T12:40:19.798Z,58.80
2019-04-06T12:42:58.528Z,59.80
2019-04-06T12:45:31.014Z,59.90
2019-04-06T12:48:17.310Z,59.00
2019-04-06T12:50:50.494Z,59.40
2019-04-06T12:53:29.495Z,59.80
2019-04-06T12:56:02.566Z,58.10
2019-04-06T12:58:41.412Z,59.60
2019-04-06T13:01:28.010Z,57.80
2019-04-06T13:04:14.148Z,57.30
2019-04-06T13:06:44.216Z,58.30
2019-04-06T13:09:17.378Z,58.20
2019-04-06T13:11:47.555Z,59.00
2019-04-06T13:14:20.429Z,60.20
2019-04-06T13:16:59.686Z,58.40
2019-04-06T13:19:29.714Z,60.20
2019-04-06T13:22:14.738Z,58.30
2019-04-06T13:25:00.510Z,57.60
2019-04-06T13:27:30.738Z,57.90
2019-04-06T13:30:01.189Z,58.50
2019-04-06T13:32:31.150Z,56.60
2019-04-06T13:35:01.153Z,59.40
2019-04-06T13:37:36.903Z,58.20
2019-04-06T13:40:20.234Z,57.30
2019-04-06T13:42:56.118Z,56.90
2019-04-06T13:45:31.762Z,59.10
2019-04-06T13:48:07.811Z,55.40
2019-04-06T13:50:37.770Z,54.30
2019-04-06T13:53:11.155Z,57.80
2019-04-06T13:55:41.170Z,57.60
2019-04-06T13:58:13.616Z,56.40
2019-04-06T14:00:52.609Z,55.70
2019-04-06T14:03:31.453Z,57.80
2019-04-06T14:06:01.685Z,57.60
2019-04-06T14:08:47.831Z,55.80
2019-04-06T14:11:35.721Z,56.70
2019-04-06T14:14:08.468Z,55.30
2019-04-06T14:16:54.431Z,55.40
2019-04-06T14:19:40.774Z,55.40
2019-04-06T14:22:26.738Z,56.50
2019-04-06T14:24:56.767Z,57.10
2019-04-06T14:27:26.814Z,52.40
2019-04-06T14:29:56.873Z,54.50
2019-04-06T14:32:32.421Z,53.20
2019-04-06T14:35:02.464Z,53.10
2019-04-06T14:37:48.754Z,54.50
2019-04-06T14:40:18.788Z,54.40
2019-04-06T14:42:54.889Z,55.30
2019-04-06T14:45:25.055Z,52.20
2019-04-06T14:48:05.183Z,55.40
2019-04-06T14:50:36.661Z,54.80
2019-04-06T14:53:07.292Z,53.70
2019-04-06T14:55:43.471Z,54.80
2019-04-06T14:58:30.146Z,54.80
2019-04-06T15:01:03.008Z,55.50
2019-04-06T15:03:51.295Z,55.60
2019-04-06T15:06:37.188Z,52.00
2019-04-06T15:09:19.066Z,54.80
2019-04-06T15:11:49.365Z,55.20
2019-04-06T15:14:25.418Z,53.30
2019-04-06T15:16:58.191Z,51.60
2019-04-06T15:19:40.115Z,53.10
2019-04-06T15:22:24.983Z,53.00
2019-04-06T15:25:12.870Z,52.00
2019-04-06T15:27:45.541Z,55.20
2019-04-06T15:30:15.566Z,54.30
2019-04-06T15:32:48.826Z,55.30
2019-04-06T15:35:21.844Z,55.40
2019-04-06T15:38:00.783Z,55.10
2019-04-06T15:40:33.479Z,50.20
2019-04-06T15:43:06.356Z,48.60
2019-04-06T15:45:36.370Z,42.40
2019-04-06T15:48:36.118Z,43.20
2019-04-06T15:50:57.412Z,41.30
2019-04-06T15:53:30.073Z,42.80
2019-04-06T15:56:16.187Z,46.50
2019-04-06T15:58:46.198Z,44.40
2019-04-06T16:01:16.233Z,41.30
2019-04-06T16:03:46.238Z,45.90
2019-04-06T16:06:28.487Z,49.60
2019-04-06T16:08:58.515Z,52.90
2019-04-06T16:11:34.633Z,51.90
2019-04-06T16:14:07.543Z,49.70
2019-04-06T16:16:46.341Z,50.80
2019-04-06T16:19:19.051Z,51.60
2019-04-06T16:22:04.241Z,52.20
2019-04-06T16:24:34.552Z,51.50
2019-04-06T16:27:04.872Z,50.40
2019-04-06T16:29:37.922Z,49.80
2019-04-06T16:32:14.033Z,52.00
2019-04-06T16:34:52.869Z,53.10
2019-04-06T16:37:22.895Z,52.50
2019-04-06T16:39:55.802Z,53.90
2019-04-06T16:42:32.431Z,55.30
2019-04-06T16:45:14.670Z,53.50
2019-04-06T16:47:50.374Z,55.40
2019-04-06T16:50:22.831Z,56.70
2019-04-06T16:52:53.151Z,58.10
2019-04-06T16:55:28.970Z,58.00
2019-04-06T16:58:08.272Z,56.00
2019-04-06T17:00:38.232Z,57.70
2019-04-06T17:03:26.444Z,58.00
2019-04-06T17:06:08.466Z,57.60
2019-04-06T17:08:38.453Z,59.20
2019-04-06T17:11:14.499Z,59.10
2019-04-06T17:13:47.232Z,58.40
2019-04-06T17:16:17.255Z,58.30
2019-04-06T17:18:59.366Z,59.50
2019-04-06T17:21:32.108Z,58.40
2019-04-06T17:24:05.453Z,58.70
2019-04-06T17:26:41.512Z,59.50
2019-04-06T17:29:15.013Z,59.00
2019-04-06T17:31:53.765Z,60.90
2019-04-06T17:34:40.061Z,62.50
2019-04-06T17:37:12.810Z,60.60
2019-04-06T17:39:42.808Z,60.00
2019-04-06T17:42:27.738Z,60.50
2019-04-06T17:45:16.011Z,61.10
2019-04-06T17:48:02.249Z,63.10
2019-04-06T17:50:47.633Z,63.70
2019-04-06T17:53:35.567Z,61.90
2019-04-06T17:56:21.858Z,64.20
2019-04-06T17:58:51.940Z,62.90
2019-04-06T18:01:21.887Z,63.90
2019-04-06T18:03:59.333Z,63.00
2019-04-06T18:06:38.414Z,65.00
2019-04-06T18:09:15.579Z,65.10
2019-04-06T18:11:51.275Z,65.80
2019-04-06T18:14:19.967Z,66.10
2019-04-06T18:16:48.368Z,66.20
2019-04-06T18:19:16.917Z,66.60
2019-04-06T18:21:45.272Z,66.40
2019-04-06T18:24:13.651Z,66.90
2019-04-06T18:26:42.009Z,67.10
2019-04-06T18:29:10.803Z,68.40
2019-04-06T18:31:50.092Z,66.80
2019-04-06T18:34:18.698Z,67.50
2019-04-06T18:36:54.665Z,67.70
2019-04-06T18:39:24.678Z,67.80
2019-04-06T18:41:53.573Z,68.50
2019-04-06T18:44:22.015Z,68.50
2019-04-06T18:46:50.369Z,68.60
2019-04-06T18:49:19.183Z,68.70
2019-04-06T18:51:47.861Z,68.70
2019-04-06T18:54:16.515Z,69.80
2019-04-06T18:56:44.847Z,69.10
2019-04-06T18:59:13.235Z,68.40
2019-04-06T19:01:41.590Z,68.70
2019-04-06T19:04:10.406Z,70.00
2019-04-06T19:06:38.838Z,70.30
2019-04-06T19:09:19.397Z,71.10
2019-04-06T19:11:38.566Z,71.30
2019-04-06T19:14:06.946Z,70.90
2019-04-06T19:16:35.489Z,71.30
2019-04-06T19:19:03.895Z,71.20
2019-04-06T19:21:32.259Z,71.80
2019-04-06T19:24:00.743Z,71.00
2019-04-06T19:26:29.097Z,70.70
2019-04-06T19:28:58.070Z,74.60
2019-04-06T19:31:26.488Z,72.80
2019-04-06T19:33:54.900Z,73.40
2019-04-06T19:36:23.651Z,74.30
2019-04-06T19:38:52.015Z,74.20
2019-04-06T19:41:20.542Z,74.00
2019-04-06T19:43:48.941Z,73.90
2019-04-06T19:46:17.334Z,73.90
2019-04-06T19:48:45.879Z,73.90
2019-04-06T19:51:14.922Z,73.80
2019-04-06T19:53:43.452Z,74.10
2019-04-06T19:56:12.069Z,75.20
2019-04-06T19:58:40.400Z,75.30
2019-04-06T20:01:09.064Z,75.50
2019-04-06T20:03:39.223Z,76.60
2019-04-06T20:06:07.809Z,75.40
2019-04-06T20:08:36.314Z,75.20
2019-04-06T20:11:05.184Z,74.90
2019-04-06T20:13:33.607Z,75.00
2019-04-06T20:16:02.089Z,75.20
2019-04-06T20:18:30.495Z,75.10
2019-04-06T20:20:58.878Z,76.50
2019-04-06T20:23:27.233Z,77.00
2019-04-06T20:25:55.663Z,76.90
2019-04-06T20:28:24.364Z,76.40
2019-04-06T20:30:53.265Z,76.60
2019-04-06T20:33:21.618Z,76.10
2019-04-06T20:35:50.002Z,79.10
2019-04-06T20:38:18.364Z,80.70
2019-04-06T20:40:47.168Z,80.40
2019-04-06T20:43:15.500Z,80.10
2019-04-06T20:45:43.892Z,78.70
2019-04-06T20:48:12.876Z,78.80
2019-04-06T20:50:41.342Z,78.90
2019-04-06T20:53:09.949Z,78.00
2019-04-06T20:55:38.737Z,77.80
2019-04-06T20:58:07.342Z,77.90
2019-04-06T21:00:36.201Z,77.80
2019-04-06T21:03:05.179Z,77.80
2019-04-06T21:05:33.577Z,77.80
2019-04-06T21:08:04.661Z,77.70
2019-04-06T21:10:32.972Z,77.50
2019-04-06T21:13:01.350Z,77.30
2019-04-06T21:15:29.716Z,77.20
2019-04-06T21:17:58.696Z,77.30
2019-04-06T21:20:27.606Z,77.10
2019-04-06T21:22:56.301Z,77.40
2019-04-06T21:25:24.803Z,77.60
2019-04-06T21:27:53.473Z,77.90
2019-04-06T21:30:22.413Z,78.50
2019-04-06T21:32:51.386Z,78.60
2019-04-06T21:35:19.808Z,78.30
2019-04-06T21:37:48.182Z,78.80
2019-04-06T21:40:16.999Z,78.40
2019-04-06T21:42:45.869Z,78.70
2019-04-06T21:45:14.315Z,80.10
2019-04-06T21:47:43.114Z,79.80
2019-04-06T21:50:11.436Z,79.20
2019-04-06T21:52:40.374Z,79.20
2019-04-06T21:55:09.155Z,79.00
2019-04-06T21:57:37.765Z,78.90
2019-04-06T22:00:08.654Z,79.10
2019-04-06T22:02:38.008Z,78.90
2019-04-06T22:05:07.092Z,79.00
2019-04-06T22:07:47.214Z,78.80
2019-04-06T22:10:06.075Z,79.10
2019-04-06T22:12:34.669Z,79.00
2019-04-06T22:15:03.132Z,79.00
2019-04-06T22:17:33.417Z,78.30
2019-04-06T22:20:01.866Z,78.30
2019-04-06T22:22:30.559Z,78.20
2019-04-06T22:24:59.147Z,78.90
2019-04-06T22:27:27.786Z,79.00
2019-04-06T22:29:56.533Z,79.80
2019-04-06T22:32:25.540Z,78.80
2019-04-06T22:34:53.894Z,79.50
2019-04-06T22:37:22.251Z,79.60
2019-04-06T22:39:50.770Z,80.30
2019-04-06T22:42:19.490Z,82.60
2019-04-06T22:44:47.877Z,80.80
2019-04-06T22:47:16.230Z,82.40
2019-04-06T22:49:44.616Z,82.40
2019-04-06T22:52:12.987Z,82.10
2019-04-06T22:54:41.357Z,81.50
2019-04-06T22:57:10.289Z,82.40
2019-04-06T22:59:39.202Z,81.70
2019-04-06T23:02:07.721Z,80.80
2019-04-06T23:04:56.042Z,80.90
2019-04-06T23:07:26.211Z,81.60
2019-04-06T23:09:54.597Z,82.10
2019-04-06T23:12:23.435Z,82.80
2019-04-06T23:14:52.185Z,82.20
2019-04-06T23:17:20.495Z,82.70
2019-04-06T23:19:48.879Z,83.40
2019-04-06T23:22:17.235Z,82.70
2019-04-06T23:24:45.620Z,83.00
2019-04-06T23:27:14.003Z,83.80
2019-04-06T23:29:42.766Z,83.50
2019-04-06T23:32:11.098Z,83.90
2019-04-06T23:34:39.675Z,83.80
2019-04-06T23:37:08.400Z,83.10
2019-04-06T23:39:36.803Z,83.10
2019-04-06T23:42:05.662Z,83.50
2019-04-06T23:44:34.538Z,84.40
2019-04-06T23:47:03.218Z,84.40
2019-04-06T23:49:31.584Z,84.20
2019-04-06T23:51:59.970Z,84.60
2019-04-06T23:54:28.850Z,85.10
2019-04-06T23:56:57.866Z,85.60
2019-04-06T23:59:26.302Z,84.40
